sensor_id;sensor_type;location;lat;lon;timestamp;P1;durP1;ratioP1;P2;durP2;ratioP2
65198;SDS011;52170;45.018;37.910;2023-09-30T00:00:26;9.18;;;3.47;;
65198;SDS011;52170;45.018;37.910;2023-09-30T00:02:52;7.70;;;3.50;;
65198;SDS011;52170;45.018;37.910;2023-09-30T00:05:17;9.18;;;4.28;;
65198;SDS011;52170;45.018;37.910;2023-09-30T00:07:45;7.75;;;3.58;;
65198;SDS011;52170;45.018;37.910;2023-09-30T00:10:11;5.45;;;3.25;;
65198;SDS011;52170;45.018;37.910;2023-09-30T00:12:37;5.37;;;3.47;;
65198;SDS011;52170;45.018;37.910;2023-09-30T00:15:03;11.23;;;3.80;;
65198;SDS011;52170;45.018;37.910;2023-09-30T00:17:29;6.43;;;3.60;;
65198;SDS011;52170;45.018;37.910;2023-09-30T00:19:55;6.57;;;3.50;;
65198;SDS011;52170;45.018;37.910;2023-09-30T00:22:21;6.80;;;3.80;;
65198;SDS011;52170;45.018;37.910;2023-09-30T00:24:47;7.87;;;3.60;;
65198;SDS011;52170;45.018;37.910;2023-09-30T00:27:13;7.47;;;3.42;;
65198;SDS011;52170;45.018;37.910;2023-09-30T00:29:39;6.22;;;3.47;;
65198;SDS011;52170;45.018;37.910;2023-09-30T00:32:04;13.07;;;4.05;;
65198;SDS011;52170;45.018;37.910;2023-09-30T00:34:34;6.83;;;3.27;;
65198;SDS011;52170;45.018;37.910;2023-09-30T00:37:00;6.53;;;3.70;;
65198;SDS011;52170;45.018;37.910;2023-09-30T00:39:25;6.63;;;3.63;;
65198;SDS011;52170;45.018;37.910;2023-09-30T00:41:55;8.52;;;3.53;;
65198;SDS011;52170;45.018;37.910;2023-09-30T00:44:21;6.20;;;3.75;;
65198;SDS011;52170;45.018;37.910;2023-09-30T00:46:46;8.13;;;3.22;;
65198;SDS011;52170;45.018;37.910;2023-09-30T00:49:12;8.33;;;3.13;;
65198;SDS011;52170;45.018;37.910;2023-09-30T00:51:38;10.65;;;4.00;;
65198;SDS011;52170;45.018;37.910;2023-09-30T00:54:04;5.20;;;3.57;;
65198;SDS011;52170;45.018;37.910;2023-09-30T00:56:31;9.02;;;3.85;;
65198;SDS011;52170;45.018;37.910;2023-09-30T00:58:57;7.45;;;3.60;;
65198;SDS011;52170;45.018;37.910;2023-09-30T01:01:23;6.90;;;3.70;;
65198;SDS011;52170;45.018;37.910;2023-09-30T01:03:49;6.83;;;3.60;;
65198;SDS011;52170;45.018;37.910;2023-09-30T01:06:14;9.02;;;3.13;;
65198;SDS011;52170;45.018;37.910;2023-09-30T01:08:40;8.20;;;3.92;;
65198;SDS011;52170;45.018;37.910;2023-09-30T01:11:07;4.72;;;3.10;;
65198;SDS011;52170;45.018;37.910;2023-09-30T01:13:33;4.45;;;2.83;;
65198;SDS011;52170;45.018;37.910;2023-09-30T01:16:05;5.65;;;3.60;;
65198;SDS011;52170;45.018;37.910;2023-09-30T01:18:31;7.55;;;3.40;;
65198;SDS011;52170;45.018;37.910;2023-09-30T01:20:58;9.10;;;3.53;;
65198;SDS011;52170;45.018;37.910;2023-09-30T01:23:25;8.63;;;3.85;;
65198;SDS011;52170;45.018;37.910;2023-09-30T01:25:50;11.63;;;4.03;;
65198;SDS011;52170;45.018;37.910;2023-09-30T01:28:17;7.68;;;3.85;;
65198;SDS011;52170;45.018;37.910;2023-09-30T01:30:43;6.13;;;3.67;;
65198;SDS011;52170;45.018;37.910;2023-09-30T01:33:08;5.53;;;2.90;;
65198;SDS011;52170;45.018;37.910;2023-09-30T01:35:34;5.00;;;3.03;;
65198;SDS011;52170;45.018;37.910;2023-09-30T01:38:00;4.60;;;3.15;;
65198;SDS011;52170;45.018;37.910;2023-09-30T01:40:25;5.03;;;3.03;;
65198;SDS011;52170;45.018;37.910;2023-09-30T01:42:51;8.98;;;3.20;;
65198;SDS011;52170;45.018;37.910;2023-09-30T01:45:17;6.55;;;3.15;;
65198;SDS011;52170;45.018;37.910;2023-09-30T01:47:42;9.83;;;2.73;;
65198;SDS011;52170;45.018;37.910;2023-09-30T01:50:08;4.72;;;2.80;;
65198;SDS011;52170;45.018;37.910;2023-09-30T01:52:34;6.03;;;3.45;;
65198;SDS011;52170;45.018;37.910;2023-09-30T01:55:00;5.60;;;2.83;;
65198;SDS011;52170;45.018;37.910;2023-09-30T01:57:25;5.18;;;2.97;;
65198;SDS011;52170;45.018;37.910;2023-09-30T01:59:51;7.30;;;2.83;;
65198;SDS011;52170;45.018;37.910;2023-09-30T02:02:17;6.90;;;3.10;;
65198;SDS011;52170;45.018;37.910;2023-09-30T02:04:43;6.67;;;2.87;;
65198;SDS011;52170;45.018;37.910;2023-09-30T02:07:09;4.25;;;2.85;;
65198;SDS011;52170;45.018;37.910;2023-09-30T02:09:35;7.07;;;3.00;;
65198;SDS011;52170;45.018;37.910;2023-09-30T02:12:01;4.93;;;2.60;;
65198;SDS011;52170;45.018;37.910;2023-09-30T02:14:27;7.05;;;2.95;;
65198;SDS011;52170;45.018;37.910;2023-09-30T02:16:53;3.90;;;2.70;;
65198;SDS011;52170;45.018;37.910;2023-09-30T02:19:19;3.97;;;2.95;;
65198;SDS011;52170;45.018;37.910;2023-09-30T02:21:45;6.63;;;3.20;;
65198;SDS011;52170;45.018;37.910;2023-09-30T02:24:12;5.72;;;2.80;;
65198;SDS011;52170;45.018;37.910;2023-09-30T02:26:37;7.07;;;3.60;;
65198;SDS011;52170;45.018;37.910;2023-09-30T02:29:04;7.63;;;3.17;;
65198;SDS011;52170;45.018;37.910;2023-09-30T02:31:33;4.93;;;2.83;;
65198;SDS011;52170;45.018;37.910;2023-09-30T02:33:59;5.93;;;3.33;;
65198;SDS011;52170;45.018;37.910;2023-09-30T02:36:25;4.82;;;2.97;;
65198;SDS011;52170;45.018;37.910;2023-09-30T02:38:52;11.43;;;3.35;;
65198;SDS011;52170;45.018;37.910;2023-09-30T02:41:19;4.97;;;2.92;;
65198;SDS011;52170;45.018;37.910;2023-09-30T02:43:45;6.00;;;2.77;;
65198;SDS011;52170;45.018;37.910;2023-09-30T02:46:11;6.28;;;2.53;;
65198;SDS011;52170;45.018;37.910;2023-09-30T02:48:38;5.53;;;2.80;;
65198;SDS011;52170;45.018;37.910;2023-09-30T02:51:08;8.00;;;3.33;;
65198;SDS011;52170;45.018;37.910;2023-09-30T02:53:34;5.10;;;2.83;;
65198;SDS011;52170;45.018;37.910;2023-09-30T02:56:00;8.07;;;2.97;;
65198;SDS011;52170;45.018;37.910;2023-09-30T02:58:25;6.27;;;2.60;;
65198;SDS011;52170;45.018;37.910;2023-09-30T03:00:52;6.05;;;3.53;;
65198;SDS011;52170;45.018;37.910;2023-09-30T03:03:18;5.80;;;2.60;;
65198;SDS011;52170;45.018;37.910;2023-09-30T03:05:44;5.23;;;2.87;;
65198;SDS011;52170;45.018;37.910;2023-09-30T03:08:10;6.63;;;2.70;;
65198;SDS011;52170;45.018;37.910;2023-09-30T03:10:36;5.88;;;3.00;;
65198;SDS011;52170;45.018;37.910;2023-09-30T03:13:06;5.38;;;2.58;;
65198;SDS011;52170;45.018;37.910;2023-09-30T03:15:32;4.55;;;2.60;;
65198;SDS011;52170;45.018;37.910;2023-09-30T03:17:58;6.10;;;2.88;;
65198;SDS011;52170;45.018;37.910;2023-09-30T03:20:25;6.10;;;2.80;;
65198;SDS011;52170;45.018;37.910;2023-09-30T03:22:50;4.57;;;2.70;;
65198;SDS011;52170;45.018;37.910;2023-09-30T03:25:16;5.07;;;2.95;;
65198;SDS011;52170;45.018;37.910;2023-09-30T03:27:43;5.53;;;2.80;;
65198;SDS011;52170;45.018;37.910;2023-09-30T03:30:09;11.20;;;2.92;;
65198;SDS011;52170;45.018;37.910;2023-09-30T03:32:35;5.45;;;3.22;;
65198;SDS011;52170;45.018;37.910;2023-09-30T03:35:10;4.23;;;2.87;;
65198;SDS011;52170;45.018;37.910;2023-09-30T03:37:43;5.60;;;3.03;;
65198;SDS011;52170;45.018;37.910;2023-09-30T03:40:08;8.73;;;3.53;;
65198;SDS011;52170;45.018;37.910;2023-09-30T03:42:39;5.10;;;2.97;;
65198;SDS011;52170;45.018;37.910;2023-09-30T03:45:05;7.20;;;3.00;;
65198;SDS011;52170;45.018;37.910;2023-09-30T03:47:37;6.55;;;3.10;;
65198;SDS011;52170;45.018;37.910;2023-09-30T03:50:04;4.28;;;2.63;;
65198;SDS011;52170;45.018;37.910;2023-09-30T03:52:33;9.97;;;3.20;;
65198;SDS011;52170;45.018;37.910;2023-09-30T03:54:59;6.57;;;2.83;;
65198;SDS011;52170;45.018;37.910;2023-09-30T03:57:25;5.73;;;2.97;;
65198;SDS011;52170;45.018;37.910;2023-09-30T03:59:52;8.02;;;3.17;;
65198;SDS011;52170;45.018;37.910;2023-09-30T04:02:18;5.83;;;3.40;;
65198;SDS011;52170;45.018;37.910;2023-09-30T04:04:44;7.03;;;3.30;;
65198;SDS011;52170;45.018;37.910;2023-09-30T04:07:11;5.90;;;3.08;;
65198;SDS011;52170;45.018;37.910;2023-09-30T04:09:38;9.18;;;3.75;;
65198;SDS011;52170;45.018;37.910;2023-09-30T04:12:03;7.30;;;2.87;;
65198;SDS011;52170;45.018;37.910;2023-09-30T04:14:29;5.95;;;3.13;;
65198;SDS011;52170;45.018;37.910;2023-09-30T04:16:55;6.10;;;3.13;;
65198;SDS011;52170;45.018;37.910;2023-09-30T04:19:20;5.50;;;3.00;;
65198;SDS011;52170;45.018;37.910;2023-09-30T04:21:46;10.20;;;3.47;;
65198;SDS011;52170;45.018;37.910;2023-09-30T04:24:12;8.67;;;3.00;;
65198;SDS011;52170;45.018;37.910;2023-09-30T04:26:37;7.17;;;3.63;;
65198;SDS011;52170;45.018;37.910;2023-09-30T04:29:03;12.27;;;4.30;;
65198;SDS011;52170;45.018;37.910;2023-09-30T04:31:30;5.70;;;3.42;;
65198;SDS011;52170;45.018;37.910;2023-09-30T04:33:55;7.40;;;3.47;;
65198;SDS011;52170;45.018;37.910;2023-09-30T04:36:23;6.40;;;3.55;;
65198;SDS011;52170;45.018;37.910;2023-09-30T04:38:48;6.90;;;3.53;;
65198;SDS011;52170;45.018;37.910;2023-09-30T04:41:14;9.63;;;3.67;;
65198;SDS011;52170;45.018;37.910;2023-09-30T04:43:41;5.30;;;3.33;;
65198;SDS011;52170;45.018;37.910;2023-09-30T04:46:08;7.15;;;3.20;;
65198;SDS011;52170;45.018;37.910;2023-09-30T04:48:34;6.93;;;3.80;;
65198;SDS011;52170;45.018;37.910;2023-09-30T04:51:00;9.18;;;3.47;;
65198;SDS011;52170;45.018;37.910;2023-09-30T04:53:25;10.53;;;4.10;;
65198;SDS011;52170;45.018;37.910;2023-09-30T04:55:51;7.57;;;4.03;;
65198;SDS011;52170;45.018;37.910;2023-09-30T04:58:17;5.75;;;3.65;;
65198;SDS011;52170;45.018;37.910;2023-09-30T05:00:43;10.70;;;3.60;;
65198;SDS011;52170;45.018;37.910;2023-09-30T05:03:08;8.17;;;3.40;;
65198;SDS011;52170;45.018;37.910;2023-09-30T05:05:34;8.95;;;3.47;;
65198;SDS011;52170;45.018;37.910;2023-09-30T05:08:01;6.18;;;3.00;;
65198;SDS011;52170;45.018;37.910;2023-09-30T05:10:26;6.75;;;2.65;;
65198;SDS011;52170;45.018;37.910;2023-09-30T05:12:52;4.67;;;2.37;;
65198;SDS011;52170;45.018;37.910;2023-09-30T05:15:20;6.82;;;3.17;;
65198;SDS011;52170;45.018;37.910;2023-09-30T05:17:46;12.85;;;3.55;;
65198;SDS011;52170;45.018;37.910;2023-09-30T05:20:13;6.47;;;2.90;;
65198;SDS011;52170;45.018;37.910;2023-09-30T05:22:39;7.03;;;3.20;;
65198;SDS011;52170;45.018;37.910;2023-09-30T05:25:10;14.35;;;3.90;;
65198;SDS011;52170;45.018;37.910;2023-09-30T05:27:36;12.03;;;4.00;;
65198;SDS011;52170;45.018;37.910;2023-09-30T05:30:03;7.95;;;3.50;;
65198;SDS011;52170;45.018;37.910;2023-09-30T05:32:29;11.13;;;2.97;;
65198;SDS011;52170;45.018;37.910;2023-09-30T05:34:56;4.63;;;2.47;;
65198;SDS011;52170;45.018;37.910;2023-09-30T05:37:23;8.90;;;3.00;;
65198;SDS011;52170;45.018;37.910;2023-09-30T05:39:49;9.88;;;2.67;;
65198;SDS011;52170;45.018;37.910;2023-09-30T05:42:15;6.07;;;2.43;;
65198;SDS011;52170;45.018;37.910;2023-09-30T05:44:41;6.53;;;2.53;;
65198;SDS011;52170;45.018;37.910;2023-09-30T05:47:08;6.20;;;2.33;;
65198;SDS011;52170;45.018;37.910;2023-09-30T05:49:34;5.77;;;2.80;;
65198;SDS011;52170;45.018;37.910;2023-09-30T05:52:02;7.53;;;2.90;;
65198;SDS011;52170;45.018;37.910;2023-09-30T05:54:27;7.50;;;3.17;;
65198;SDS011;52170;45.018;37.910;2023-09-30T05:56:54;6.60;;;2.90;;
65198;SDS011;52170;45.018;37.910;2023-09-30T05:59:20;5.50;;;2.80;;
65198;SDS011;52170;45.018;37.910;2023-09-30T06:01:46;6.53;;;3.28;;
65198;SDS011;52170;45.018;37.910;2023-09-30T06:04:11;6.03;;;3.00;;
65198;SDS011;52170;45.018;37.910;2023-09-30T06:06:37;6.10;;;2.93;;
65198;SDS011;52170;45.018;37.910;2023-09-30T06:09:04;7.70;;;3.00;;
65198;SDS011;52170;45.018;37.910;2023-09-30T06:11:29;7.07;;;2.90;;
65198;SDS011;52170;45.018;37.910;2023-09-30T06:13:55;6.85;;;2.55;;
65198;SDS011;52170;45.018;37.910;2023-09-30T06:16:21;6.43;;;2.77;;
65198;SDS011;52170;45.018;37.910;2023-09-30T06:18:46;5.38;;;2.60;;
65198;SDS011;52170;45.018;37.910;2023-09-30T06:21:13;5.20;;;2.55;;
65198;SDS011;52170;45.018;37.910;2023-09-30T06:23:40;4.57;;;2.28;;
65198;SDS011;52170;45.018;37.910;2023-09-30T06:26:06;6.80;;;3.30;;
65198;SDS011;52170;45.018;37.910;2023-09-30T06:28:31;6.85;;;2.85;;
65198;SDS011;52170;45.018;37.910;2023-09-30T06:30:59;4.73;;;3.00;;
65198;SDS011;52170;45.018;37.910;2023-09-30T06:33:25;7.18;;;2.78;;
65198;SDS011;52170;45.018;37.910;2023-09-30T06:35:50;6.03;;;2.40;;
65198;SDS011;52170;45.018;37.910;2023-09-30T06:38:17;11.70;;;2.67;;
65198;SDS011;52170;45.018;37.910;2023-09-30T06:40:43;4.95;;;2.75;;
65198;SDS011;52170;45.018;37.910;2023-09-30T06:43:09;5.87;;;2.20;;
65198;SDS011;52170;45.018;37.910;2023-09-30T06:45:34;4.68;;;2.25;;
65198;SDS011;52170;45.018;37.910;2023-09-30T06:48:05;4.05;;;2.25;;
65198;SDS011;52170;45.018;37.910;2023-09-30T06:50:30;3.87;;;2.20;;
65198;SDS011;52170;45.018;37.910;2023-09-30T06:52:57;4.25;;;2.22;;
65198;SDS011;52170;45.018;37.910;2023-09-30T06:55:22;3.60;;;2.03;;
65198;SDS011;52170;45.018;37.910;2023-09-30T06:57:50;5.13;;;1.97;;
65198;SDS011;52170;45.018;37.910;2023-09-30T07:00:16;6.57;;;1.83;;
65198;SDS011;52170;45.018;37.910;2023-09-30T07:02:42;5.13;;;2.22;;
65198;SDS011;52170;45.018;37.910;2023-09-30T07:05:08;3.63;;;1.90;;
65198;SDS011;52170;45.018;37.910;2023-09-30T07:07:34;3.25;;;2.10;;
65198;SDS011;52170;45.018;37.910;2023-09-30T07:09:59;4.93;;;2.05;;
65198;SDS011;52170;45.018;37.910;2023-09-30T07:12:25;7.47;;;2.07;;
65198;SDS011;52170;45.018;37.910;2023-09-30T07:14:50;2.95;;;2.05;;
65198;SDS011;52170;45.018;37.910;2023-09-30T07:17:16;2.30;;;1.63;;
65198;SDS011;52170;45.018;37.910;2023-09-30T07:19:42;3.08;;;1.80;;
65198;SDS011;52170;45.018;37.910;2023-09-30T07:22:08;3.20;;;1.93;;
65198;SDS011;52170;45.018;37.910;2023-09-30T07:24:34;3.90;;;2.00;;
65198;SDS011;52170;45.018;37.910;2023-09-30T07:26:59;3.83;;;1.90;;
65198;SDS011;52170;45.018;37.910;2023-09-30T07:29:25;6.38;;;1.88;;
65198;SDS011;52170;45.018;37.910;2023-09-30T07:31:50;5.13;;;2.40;;
65198;SDS011;52170;45.018;37.910;2023-09-30T07:34:16;7.37;;;2.47;;
65198;SDS011;52170;45.018;37.910;2023-09-30T07:36:42;7.28;;;3.05;;
65198;SDS011;52170;45.018;37.910;2023-09-30T07:39:07;4.23;;;2.70;;
65198;SDS011;52170;45.018;37.910;2023-09-30T07:41:36;5.30;;;2.80;;
65198;SDS011;52170;45.018;37.910;2023-09-30T07:44:02;7.55;;;3.00;;
65198;SDS011;52170;45.018;37.910;2023-09-30T07:46:28;10.30;;;4.20;;
65198;SDS011;52170;45.018;37.910;2023-09-30T07:48:53;8.93;;;4.78;;
65198;SDS011;52170;45.018;37.910;2023-09-30T07:51:20;7.80;;;4.40;;
65198;SDS011;52170;45.018;37.910;2023-09-30T07:53:46;6.70;;;3.80;;
65198;SDS011;52170;45.018;37.910;2023-09-30T07:56:11;14.65;;;4.40;;
65198;SDS011;52170;45.018;37.910;2023-09-30T07:58:37;9.37;;;3.43;;
65198;SDS011;52170;45.018;37.910;2023-09-30T08:01:02;6.23;;;3.03;;
65198;SDS011;52170;45.018;37.910;2023-09-30T08:03:29;6.30;;;2.50;;
65198;SDS011;52170;45.018;37.910;2023-09-30T08:05:55;6.70;;;3.33;;
65198;SDS011;52170;45.018;37.910;2023-09-30T08:08:21;8.63;;;2.95;;
65198;SDS011;52170;45.018;37.910;2023-09-30T08:10:49;14.25;;;3.22;;
65198;SDS011;52170;45.018;37.910;2023-09-30T08:13:15;9.25;;;3.90;;
65198;SDS011;52170;45.018;37.910;2023-09-30T08:15:42;10.30;;;4.00;;
65198;SDS011;52170;45.018;37.910;2023-09-30T08:18:08;8.43;;;3.80;;
65198;SDS011;52170;45.018;37.910;2023-09-30T08:20:34;5.45;;;2.60;;
65198;SDS011;52170;45.018;37.910;2023-09-30T08:22:59;10.70;;;3.07;;
65198;SDS011;52170;45.018;37.910;2023-09-30T08:25:25;5.32;;;2.40;;
65198;SDS011;52170;45.018;37.910;2023-09-30T08:27:51;5.32;;;2.83;;
65198;SDS011;52170;45.018;37.910;2023-09-30T08:30:17;3.55;;;2.10;;
65198;SDS011;52170;45.018;37.910;2023-09-30T08:32:43;3.95;;;2.33;;
65198;SDS011;52170;45.018;37.910;2023-09-30T08:35:09;4.13;;;2.30;;
65198;SDS011;52170;45.018;37.910;2023-09-30T08:37:35;4.00;;;2.60;;
65198;SDS011;52170;45.018;37.910;2023-09-30T08:40:00;7.43;;;3.07;;
65198;SDS011;52170;45.018;37.910;2023-09-30T08:42:26;8.27;;;4.30;;
65198;SDS011;52170;45.018;37.910;2023-09-30T08:44:54;8.77;;;4.00;;
65198;SDS011;52170;45.018;37.910;2023-09-30T08:47:20;8.53;;;4.90;;
65198;SDS011;52170;45.018;37.910;2023-09-30T08:49:48;9.50;;;4.28;;
65198;SDS011;52170;45.018;37.910;2023-09-30T08:52:14;14.70;;;5.93;;
65198;SDS011;52170;45.018;37.910;2023-09-30T08:54:40;8.82;;;5.72;;
65198;SDS011;52170;45.018;37.910;2023-09-30T08:57:05;14.97;;;7.00;;
65198;SDS011;52170;45.018;37.910;2023-09-30T08:59:32;21.13;;;7.32;;
65198;SDS011;52170;45.018;37.910;2023-09-30T09:02:00;15.05;;;7.85;;
65198;SDS011;52170;45.018;37.910;2023-09-30T09:04:26;22.40;;;11.10;;
65198;SDS011;52170;45.018;37.910;2023-09-30T09:06:53;15.05;;;8.13;;
65198;SDS011;52170;45.018;37.910;2023-09-30T09:09:18;11.48;;;5.90;;
65198;SDS011;52170;45.018;37.910;2023-09-30T09:11:46;6.97;;;4.10;;
65198;SDS011;52170;45.018;37.910;2023-09-30T09:14:12;9.90;;;5.32;;
65198;SDS011;52170;45.018;37.910;2023-09-30T09:16:48;14.23;;;6.97;;
65198;SDS011;52170;45.018;37.910;2023-09-30T09:19:15;16.25;;;8.13;;
65198;SDS011;52170;45.018;37.910;2023-09-30T09:21:57;16.47;;;7.77;;
65198;SDS011;52170;45.018;37.910;2023-09-30T09:24:26;14.23;;;8.50;;
65198;SDS011;52170;45.018;37.910;2023-09-30T09:26:52;19.23;;;8.97;;
65198;SDS011;52170;45.018;37.910;2023-09-30T09:29:17;10.35;;;4.50;;
65198;SDS011;52170;45.018;37.910;2023-09-30T09:31:50;8.88;;;3.90;;
65198;SDS011;52170;45.018;37.910;2023-09-30T09:34:15;12.07;;;4.60;;
65198;SDS011;52170;45.018;37.910;2023-09-30T09:36:42;11.05;;;6.20;;
65198;SDS011;52170;45.018;37.910;2023-09-30T09:39:08;16.45;;;8.15;;
65198;SDS011;52170;45.018;37.910;2023-09-30T09:41:55;17.92;;;8.55;;
65198;SDS011;52170;45.018;37.910;2023-09-30T09:44:23;16.17;;;8.38;;
65198;SDS011;52170;45.018;37.910;2023-09-30T09:46:50;13.10;;;6.47;;
65198;SDS011;52170;45.018;37.910;2023-09-30T09:49:16;15.40;;;7.10;;
65198;SDS011;52170;45.018;37.910;2023-09-30T09:51:43;12.20;;;6.13;;
65198;SDS011;52170;45.018;37.910;2023-09-30T09:54:09;18.73;;;8.38;;
65198;SDS011;52170;45.018;37.910;2023-09-30T09:56:36;19.95;;;7.68;;
65198;SDS011;52170;45.018;37.910;2023-09-30T09:59:02;16.70;;;7.70;;
65198;SDS011;52170;45.018;37.910;2023-09-30T10:01:30;15.20;;;8.80;;
65198;SDS011;52170;45.018;37.910;2023-09-30T10:03:55;18.20;;;9.23;;
65198;SDS011;52170;45.018;37.910;2023-09-30T10:06:21;17.73;;;8.90;;
65198;SDS011;52170;45.018;37.910;2023-09-30T10:08:48;17.08;;;8.60;;
65198;SDS011;52170;45.018;37.910;2023-09-30T10:11:17;18.10;;;9.65;;
65198;SDS011;52170;45.018;37.910;2023-09-30T10:19:11;7.75;;;3.47;;
65198;SDS011;52170;45.018;37.910;2023-09-30T10:21:37;7.22;;;3.33;;
65198;SDS011;52170;45.018;37.910;2023-09-30T10:26:47;8.52;;;4.10;;
65198;SDS011;52170;45.018;37.910;2023-09-30T10:29:39;8.65;;;5.50;;
65198;SDS011;52170;45.018;37.910;2023-09-30T10:32:05;15.45;;;5.10;;
65198;SDS011;52170;45.018;37.910;2023-09-30T10:34:31;7.60;;;4.03;;
65198;SDS011;52170;45.018;37.910;2023-09-30T10:36:56;7.18;;;2.92;;
65198;SDS011;52170;45.018;37.910;2023-09-30T10:42:06;4.28;;;2.15;;
65198;SDS011;52170;45.018;37.910;2023-09-30T10:44:35;7.78;;;3.00;;
65198;SDS011;52170;45.018;37.910;2023-09-30T10:47:46;4.65;;;2.88;;
65198;SDS011;52170;45.018;37.910;2023-09-30T10:49:47;4.57;;;2.88;;
65198;SDS011;52170;45.018;37.910;2023-09-30T10:52:16;7.85;;;3.45;;
65198;SDS011;52170;45.018;37.910;2023-09-30T10:54:46;5.75;;;3.53;;
65198;SDS011;52170;45.018;37.910;2023-09-30T10:57:13;3.55;;;2.80;;
65198;SDS011;52170;45.018;37.910;2023-09-30T11:00:04;7.25;;;3.80;;
65198;SDS011;52170;45.018;37.910;2023-09-30T11:02:32;3.60;;;2.90;;
65198;SDS011;52170;45.018;37.910;2023-09-30T11:05:01;6.55;;;3.97;;
65198;SDS011;52170;45.018;37.910;2023-09-30T11:07:33;5.43;;;3.50;;
65198;SDS011;52170;45.018;37.910;2023-09-30T11:10:00;7.97;;;4.00;;
65198;SDS011;52170;45.018;37.910;2023-09-30T11:12:26;8.88;;;3.65;;
65198;SDS011;52170;45.018;37.910;2023-09-30T11:14:58;5.93;;;3.58;;
65198;SDS011;52170;45.018;37.910;2023-09-30T11:17:24;5.15;;;3.05;;
65198;SDS011;52170;45.018;37.910;2023-09-30T11:19:50;5.20;;;3.05;;
65198;SDS011;52170;45.018;37.910;2023-09-30T11:22:16;5.35;;;3.20;;
65198;SDS011;52170;45.018;37.910;2023-09-30T11:24:42;7.32;;;2.35;;
65198;SDS011;52170;45.018;37.910;2023-09-30T11:27:08;5.38;;;3.58;;
65198;SDS011;52170;45.018;37.910;2023-09-30T11:29:34;8.45;;;4.53;;
65198;SDS011;52170;45.018;37.910;2023-09-30T11:31:59;5.78;;;2.75;;
65198;SDS011;52170;45.018;37.910;2023-09-30T11:34:33;3.05;;;2.03;;
65198;SDS011;52170;45.018;37.910;2023-09-30T11:37:00;5.95;;;3.38;;
65198;SDS011;52170;45.018;37.910;2023-09-30T11:39:26;9.65;;;4.30;;
65198;SDS011;52170;45.018;37.910;2023-09-30T11:41:52;6.03;;;3.97;;
65198;SDS011;52170;45.018;37.910;2023-09-30T11:44:18;15.55;;;4.18;;
65198;SDS011;52170;45.018;37.910;2023-09-30T11:46:50;9.23;;;4.28;;
65198;SDS011;52170;45.018;37.910;2023-09-30T11:49:41;6.45;;;3.55;;
65198;SDS011;52170;45.018;37.910;2023-09-30T11:54:32;7.78;;;3.90;;
65198;SDS011;52170;45.018;37.910;2023-09-30T11:56:59;5.75;;;3.80;;
65198;SDS011;52170;45.018;37.910;2023-09-30T11:59:25;7.57;;;4.03;;
65198;SDS011;52170;45.018;37.910;2023-09-30T12:01:51;6.75;;;4.00;;
65198;SDS011;52170;45.018;37.910;2023-09-30T12:04:20;8.23;;;4.15;;
65198;SDS011;52170;45.018;37.910;2023-09-30T12:06:45;6.80;;;3.92;;
65198;SDS011;52170;45.018;37.910;2023-09-30T12:09:16;11.80;;;4.35;;
65198;SDS011;52170;45.018;37.910;2023-09-30T12:11:48;11.55;;;4.72;;
65198;SDS011;52170;45.018;37.910;2023-09-30T12:14:13;8.27;;;3.47;;
65198;SDS011;52170;45.018;37.910;2023-09-30T12:16:39;5.22;;;3.22;;
65198;SDS011;52170;45.018;37.910;2023-09-30T12:19:05;8.30;;;3.60;;
65198;SDS011;52170;45.018;37.910;2023-09-30T12:21:34;8.27;;;3.88;;
65198;SDS011;52170;45.018;37.910;2023-09-30T12:24:00;6.03;;;3.40;;
65198;SDS011;52170;45.018;37.910;2023-09-30T12:26:27;5.47;;;3.67;;
65198;SDS011;52170;45.018;37.910;2023-09-30T12:28:52;9.57;;;4.00;;
65198;SDS011;52170;45.018;37.910;2023-09-30T12:31:18;9.07;;;4.68;;
65198;SDS011;52170;45.018;37.910;2023-09-30T12:33:45;13.80;;;3.70;;
65198;SDS011;52170;45.018;37.910;2023-09-30T12:38:41;5.72;;;3.75;;
65198;SDS011;52170;45.018;37.910;2023-09-30T12:41:08;11.38;;;4.32;;
65198;SDS011;52170;45.018;37.910;2023-09-30T12:43:33;6.55;;;4.40;;
65198;SDS011;52170;45.018;37.910;2023-09-30T12:45:59;8.25;;;4.90;;
65198;SDS011;52170;45.018;37.910;2023-09-30T12:48:25;9.13;;;4.30;;
65198;SDS011;52170;45.018;37.910;2023-09-30T12:50:50;5.82;;;4.40;;
65198;SDS011;52170;45.018;37.910;2023-09-30T12:53:16;7.80;;;4.88;;
65198;SDS011;52170;45.018;37.910;2023-09-30T12:55:42;10.10;;;4.75;;
65198;SDS011;52170;45.018;37.910;2023-09-30T12:58:07;8.02;;;4.53;;
65198;SDS011;52170;45.018;37.910;2023-09-30T13:00:34;10.82;;;4.97;;
65198;SDS011;52170;45.018;37.910;2023-09-30T13:03:01;8.13;;;4.93;;
65198;SDS011;52170;45.018;37.910;2023-09-30T13:05:27;13.88;;;5.35;;
65198;SDS011;52170;45.018;37.910;2023-09-30T13:07:55;7.45;;;4.68;;
65198;SDS011;52170;45.018;37.910;2023-09-30T13:10:21;10.07;;;5.05;;
65198;SDS011;52170;45.018;37.910;2023-09-30T13:12:47;6.88;;;4.65;;
65198;SDS011;52170;45.018;37.910;2023-09-30T13:15:15;7.07;;;4.47;;
65198;SDS011;52170;45.018;37.910;2023-09-30T13:17:41;8.43;;;5.07;;
65198;SDS011;52170;45.018;37.910;2023-09-30T13:20:07;5.75;;;4.72;;
65198;SDS011;52170;45.018;37.910;2023-09-30T13:22:34;7.18;;;4.50;;
65198;SDS011;52170;45.018;37.910;2023-09-30T13:25:01;11.05;;;4.97;;
65198;SDS011;52170;45.018;37.910;2023-09-30T13:27:27;4.53;;;3.30;;
65198;SDS011;52170;45.018;37.910;2023-09-30T13:29:53;5.63;;;3.55;;
65198;SDS011;52170;45.018;37.910;2023-09-30T13:32:22;4.70;;;2.95;;
65198;SDS011;52170;45.018;37.910;2023-09-30T13:34:47;5.03;;;3.35;;
65198;SDS011;52170;45.018;37.910;2023-09-30T13:37:14;6.15;;;3.90;;
65198;SDS011;52170;45.018;37.910;2023-09-30T13:39:39;9.48;;;4.07;;
65198;SDS011;52170;45.018;37.910;2023-09-30T13:42:05;5.63;;;3.75;;
65198;SDS011;52170;45.018;37.910;2023-09-30T13:44:32;7.95;;;4.00;;
65198;SDS011;52170;45.018;37.910;2023-09-30T13:46:58;8.13;;;5.07;;
65198;SDS011;52170;45.018;37.910;2023-09-30T13:49:24;5.82;;;3.60;;
65198;SDS011;52170;45.018;37.910;2023-09-30T13:51:50;5.32;;;4.22;;
65198;SDS011;52170;45.018;37.910;2023-09-30T13:54:15;7.18;;;4.25;;
